sensor_id;sensor_type;location;lat;lon;timestamp;pressure;altitude;pressure_sealevel;temperature
68510;BMP180;55512;50.102;19.958;2022-12-07T00:01:33;98131.20;;;2.80
68510;BMP180;55512;50.102;19.958;2022-12-07T00:04:02;98130.60;;;2.80
68510;BMP180;55512;50.102;19.958;2022-12-07T00:06:46;98129.40;;;2.80
68510;BMP180;55512;50.102;19.958;2022-12-07T00:09:15;98128.60;;;2.80
68510;BMP180;55512;50.102;19.958;2022-12-07T00:11:41;98131.20;;;2.82
68510;BMP180;55512;50.102;19.958;2022-12-07T00:14:12;98131.40;;;2.84
68510;BMP180;55512;50.102;19.958;2022-12-07T00:16:38;98133.00;;;2.70
68510;BMP180;55512;50.102;19.958;2022-12-07T00:19:04;98123.60;;;2.64
68510;BMP180;55512;50.102;19.958;2022-12-07T00:21:35;98121.80;;;2.62
68510;BMP180;55512;50.102;19.958;2022-12-07T00:24:03;98122.40;;;2.64
68510;BMP180;55512;50.102;19.958;2022-12-07T00:26:36;98118.00;;;2.68
68510;BMP180;55512;50.102;19.958;2022-12-07T00:29:06;98121.80;;;2.70
68510;BMP180;55512;50.102;19.958;2022-12-07T00:31:35;98120.60;;;2.60
68510;BMP180;55512;50.102;19.958;2022-12-07T00:34:06;98121.20;;;2.60
68510;BMP180;55512;50.102;19.958;2022-12-07T00:36:32;98129.80;;;2.60
68510;BMP180;55512;50.102;19.958;2022-12-07T00:38:59;98124.00;;;2.60
68510;BMP180;55512;50.102;19.958;2022-12-07T00:41:27;98125.20;;;2.60
68510;BMP180;55512;50.102;19.958;2022-12-07T00:43:54;98120.20;;;2.60
68510;BMP180;55512;50.102;19.958;2022-12-07T00:46:21;98125.60;;;2.60
68510;BMP180;55512;50.102;19.958;2022-12-07T00:48:48;98122.40;;;2.60
68510;BMP180;55512;50.102;19.958;2022-12-07T00:51:16;98116.40;;;2.60
68510;BMP180;55512;50.102;19.958;2022-12-07T00:53:42;98116.40;;;2.60
68510;BMP180;55512;50.102;19.958;2022-12-07T00:56:14;98116.40;;;2.60
68510;BMP180;55512;50.102;19.958;2022-12-07T00:58:40;98117.80;;;2.60
68510;BMP180;55512;50.102;19.958;2022-12-07T01:01:07;98110.60;;;2.60
68510;BMP180;55512;50.102;19.958;2022-12-07T01:03:33;98109.60;;;2.66
68510;BMP180;55512;50.102;19.958;2022-12-07T01:05:59;98105.60;;;2.64
68510;BMP180;55512;50.102;19.958;2022-12-07T01:08:26;98107.40;;;2.60
68510;BMP180;55512;50.102;19.958;2022-12-07T01:11:06;98110.00;;;2.60
68510;BMP180;55512;50.102;19.958;2022-12-07T01:13:34;98108.40;;;2.62
68510;BMP180;55512;50.102;19.958;2022-12-07T01:16:04;98111.00;;;2.70
68510;BMP180;55512;50.102;19.958;2022-12-07T01:18:33;98107.60;;;2.70
68510;BMP180;55512;50.102;19.958;2022-12-07T01:21:13;98102.40;;;2.78
68510;BMP180;55512;50.102;19.958;2022-12-07T01:23:40;98097.20;;;2.72
68510;BMP180;55512;50.102;19.958;2022-12-07T01:26:11;98097.60;;;2.80
68510;BMP180;55512;50.102;19.958;2022-12-07T01:28:38;98096.00;;;2.80
68510;BMP180;55512;50.102;19.958;2022-12-07T01:31:09;98096.60;;;2.80
68510;BMP180;55512;50.102;19.958;2022-12-07T01:33:42;98094.80;;;2.80
68510;BMP180;55512;50.102;19.958;2022-12-07T01:36:19;98097.40;;;2.84
68510;BMP180;55512;50.102;19.958;2022-12-07T01:38:46;98090.20;;;2.80
68510;BMP180;55512;50.102;19.958;2022-12-07T01:41:13;98089.80;;;2.80
68510;BMP180;55512;50.102;19.958;2022-12-07T01:46:47;98085.00;;;2.76
68510;BMP180;55512;50.102;19.958;2022-12-07T01:49:23;98085.40;;;2.70
68510;BMP180;55512;50.102;19.958;2022-12-07T01:51:57;98089.60;;;2.70
68510;BMP180;55512;50.102;19.958;2022-12-07T01:54:25;98090.40;;;2.70
68510;BMP180;55512;50.102;19.958;2022-12-07T01:56:55;98086.00;;;2.70
68510;BMP180;55512;50.102;19.958;2022-12-07T01:59:24;98088.60;;;2.70
68510;BMP180;55512;50.102;19.958;2022-12-07T02:01:53;98086.20;;;2.70
68510;BMP180;55512;50.102;19.958;2022-12-07T02:04:19;98086.60;;;2.70
68510;BMP180;55512;50.102;19.958;2022-12-07T02:06:47;98079.80;;;2.70
68510;BMP180;55512;50.102;19.958;2022-12-07T02:09:12;98088.00;;;2.70
68510;BMP180;55512;50.102;19.958;2022-12-07T02:11:39;98088.40;;;2.70
68510;BMP180;55512;50.102;19.958;2022-12-07T02:14:05;98084.60;;;2.70
68510;BMP180;55512;50.102;19.958;2022-12-07T02:16:50;98081.40;;;2.70
68510;BMP180;55512;50.102;19.958;2022-12-07T02:31:19;98080.80;;;2.60
68510;BMP180;55512;50.102;19.958;2022-12-07T02:33:55;98084.60;;;2.54
68510;BMP180;55512;50.102;19.958;2022-12-07T02:36:28;98078.60;;;2.50
68510;BMP180;55512;50.102;19.958;2022-12-07T02:39:09;98086.00;;;2.50
68510;BMP180;55512;50.102;19.958;2022-12-07T02:41:44;98084.20;;;2.50
68510;BMP180;55512;50.102;19.958;2022-12-07T02:44:18;98087.60;;;2.50
68510;BMP180;55512;50.102;19.958;2022-12-07T02:46:53;98082.20;;;2.50
68510;BMP180;55512;50.102;19.958;2022-12-07T02:49:23;98084.60;;;2.50
68510;BMP180;55512;50.102;19.958;2022-12-07T02:51:49;98083.60;;;2.50
68510;BMP180;55512;50.102;19.958;2022-12-07T02:54:19;98083.60;;;2.50
68510;BMP180;55512;50.102;19.958;2022-12-07T02:56:46;98077.00;;;2.50
68510;BMP180;55512;50.102;19.958;2022-12-07T03:07:55;98064.20;;;2.60
68510;BMP180;55512;50.102;19.958;2022-12-07T03:13:10;98062.80;;;2.60
68510;BMP180;55512;50.102;19.958;2022-12-07T03:15:57;98065.60;;;2.60
68510;BMP180;55512;50.102;19.958;2022-12-07T03:18:30;98061.80;;;2.60
68510;BMP180;55512;50.102;19.958;2022-12-07T03:21:02;98063.20;;;2.60
68510;BMP180;55512;50.102;19.958;2022-12-07T03:23:33;98063.80;;;2.60
68510;BMP180;55512;50.102;19.958;2022-12-07T03:26:01;98057.20;;;2.60
68510;BMP180;55512;50.102;19.958;2022-12-07T03:28:35;98059.60;;;2.60
68510;BMP180;55512;50.102;19.958;2022-12-07T03:31:06;98049.60;;;2.60
68510;BMP180;55512;50.102;19.958;2022-12-07T03:33:44;98053.60;;;2.60
68510;BMP180;55512;50.102;19.958;2022-12-07T03:36:40;98054.20;;;2.60
68510;BMP180;55512;50.102;19.958;2022-12-07T03:41:44;98045.20;;;2.60
68510;BMP180;55512;50.102;19.958;2022-12-07T03:44:12;98041.80;;;2.60
68510;BMP180;55512;50.102;19.958;2022-12-07T03:49:27;98042.40;;;2.60
68510;BMP180;55512;50.102;19.958;2022-12-07T03:54:49;98037.40;;;2.60
68510;BMP180;55512;50.102;19.958;2022-12-07T03:57:18;98031.60;;;2.60
68510;BMP180;55512;50.102;19.958;2022-12-07T03:59:45;98029.20;;;2.60
68510;BMP180;55512;50.102;19.958;2022-12-07T04:02:13;98028.20;;;2.54
68510;BMP180;55512;50.102;19.958;2022-12-07T04:04:40;98030.80;;;2.50
68510;BMP180;55512;50.102;19.958;2022-12-07T04:07:05;98031.80;;;2.50
68510;BMP180;55512;50.102;19.958;2022-12-07T04:09:31;98032.40;;;2.50
68510;BMP180;55512;50.102;19.958;2022-12-07T04:11:56;98032.40;;;2.50
68510;BMP180;55512;50.102;19.958;2022-12-07T04:14:22;98034.00;;;2.50
68510;BMP180;55512;50.102;19.958;2022-12-07T04:16:57;98031.20;;;2.50
68510;BMP180;55512;50.102;19.958;2022-12-07T04:19:26;98034.00;;;2.48
68510;BMP180;55512;50.102;19.958;2022-12-07T04:21:53;98032.60;;;2.50
68510;BMP180;55512;50.102;19.958;2022-12-07T04:24:20;98029.80;;;2.50
68510;BMP180;55512;50.102;19.958;2022-12-07T04:26:46;98031.80;;;2.50
68510;BMP180;55512;50.102;19.958;2022-12-07T04:29:13;98033.40;;;2.50
68510;BMP180;55512;50.102;19.958;2022-12-07T04:31:39;98033.20;;;2.50
68510;BMP180;55512;50.102;19.958;2022-12-07T04:34:06;98028.20;;;2.40
68510;BMP180;55512;50.102;19.958;2022-12-07T04:36:33;98029.60;;;2.40
68510;BMP180;55512;50.102;19.958;2022-12-07T04:38:58;98030.00;;;2.40
68510;BMP180;55512;50.102;19.958;2022-12-07T04:41:25;98028.40;;;2.40
68510;BMP180;55512;50.102;19.958;2022-12-07T04:44:01;98025.20;;;2.40
68510;BMP180;55512;50.102;19.958;2022-12-07T04:46:29;98029.60;;;2.40
68510;BMP180;55512;50.102;19.958;2022-12-07T04:48:55;98026.00;;;2.36
68510;BMP180;55512;50.102;19.958;2022-12-07T04:51:25;98030.20;;;2.30
68510;BMP180;55512;50.102;19.958;2022-12-07T04:53:52;98031.00;;;2.30
68510;BMP180;55512;50.102;19.958;2022-12-07T04:56:18;98028.40;;;2.30
68510;BMP180;55512;50.102;19.958;2022-12-07T04:58:47;98025.80;;;2.38
68510;BMP180;55512;50.102;19.958;2022-12-07T05:01:14;98024.00;;;2.40
68510;BMP180;55512;50.102;19.958;2022-12-07T05:03:40;98024.20;;;2.40
68510;BMP180;55512;50.102;19.958;2022-12-07T05:06:06;98028.80;;;2.40
68510;BMP180;55512;50.102;19.958;2022-12-07T05:08:33;98026.20;;;2.36
68510;BMP180;55512;50.102;19.958;2022-12-07T05:11:01;98024.00;;;2.32
68510;BMP180;55512;50.102;19.958;2022-12-07T05:13:27;98023.40;;;2.32
68510;BMP180;55512;50.102;19.958;2022-12-07T05:15:52;98022.20;;;2.30
68510;BMP180;55512;50.102;19.958;2022-12-07T05:18:18;98024.60;;;2.30
68510;BMP180;55512;50.102;19.958;2022-12-07T05:20:44;98024.40;;;2.24
68510;BMP180;55512;50.102;19.958;2022-12-07T05:23:10;98026.00;;;2.20
68510;BMP180;55512;50.102;19.958;2022-12-07T05:25:36;98026.00;;;2.10
68510;BMP180;55512;50.102;19.958;2022-12-07T05:28:03;98025.00;;;2.10
68510;BMP180;55512;50.102;19.958;2022-12-07T05:30:29;98026.20;;;2.10
68510;BMP180;55512;50.102;19.958;2022-12-07T05:32:55;98026.20;;;2.04
68510;BMP180;55512;50.102;19.958;2022-12-07T05:35:21;98021.80;;;2.10
68510;BMP180;55512;50.102;19.958;2022-12-07T05:37:46;98021.40;;;2.10
68510;BMP180;55512;50.102;19.958;2022-12-07T05:40:13;98021.20;;;2.14
68510;BMP180;55512;50.102;19.958;2022-12-07T05:42:40;98028.20;;;2.18
68510;BMP180;55512;50.102;19.958;2022-12-07T05:45:07;98028.60;;;2.20
68510;BMP180;55512;50.102;19.958;2022-12-07T05:47:33;98031.60;;;2.20
68510;BMP180;55512;50.102;19.958;2022-12-07T05:49:58;98031.00;;;2.20
68510;BMP180;55512;50.102;19.958;2022-12-07T05:52:24;98031.40;;;2.20
68510;BMP180;55512;50.102;19.958;2022-12-07T05:54:49;98032.20;;;2.20
68510;BMP180;55512;50.102;19.958;2022-12-07T05:57:15;98031.00;;;2.20
68510;BMP180;55512;50.102;19.958;2022-12-07T05:59:41;98033.20;;;2.24
68510;BMP180;55512;50.102;19.958;2022-12-07T06:02:13;98033.40;;;2.30
68510;BMP180;55512;50.102;19.958;2022-12-07T06:04:44;98037.00;;;2.30
68510;BMP180;55512;50.102;19.958;2022-12-07T06:07:12;98035.60;;;2.36
68510;BMP180;55512;50.102;19.958;2022-12-07T06:09:38;98032.80;;;2.40
68510;BMP180;55512;50.102;19.958;2022-12-07T06:12:05;98035.20;;;2.40
68510;BMP180;55512;50.102;19.958;2022-12-07T06:14:49;98036.80;;;2.48
68510;BMP180;55512;50.102;19.958;2022-12-07T06:17:15;98036.60;;;2.48
68510;BMP180;55512;50.102;19.958;2022-12-07T06:19:42;98040.00;;;2.46
68510;BMP180;55512;50.102;19.958;2022-12-07T06:22:08;98037.60;;;2.48
68510;BMP180;55512;50.102;19.958;2022-12-07T06:24:35;98038.80;;;2.50
68510;BMP180;55512;50.102;19.958;2022-12-07T06:27:00;98039.60;;;2.50
68510;BMP180;55512;50.102;19.958;2022-12-07T06:29:26;98041.60;;;2.50
68510;BMP180;55512;50.102;19.958;2022-12-07T06:31:51;98037.40;;;2.50
68510;BMP180;55512;50.102;19.958;2022-12-07T06:34:20;98037.60;;;2.50
68510;BMP180;55512;50.102;19.958;2022-12-07T06:36:46;98036.20;;;2.50
68510;BMP180;55512;50.102;19.958;2022-12-07T06:39:18;98040.20;;;2.50
68510;BMP180;55512;50.102;19.958;2022-12-07T06:41:44;98040.20;;;2.50
68510;BMP180;55512;50.102;19.958;2022-12-07T06:44:10;98040.60;;;2.50
68510;BMP180;55512;50.102;19.958;2022-12-07T06:46:36;98035.80;;;2.50
68510;BMP180;55512;50.102;19.958;2022-12-07T06:49:03;98047.20;;;2.50
68510;BMP180;55512;50.102;19.958;2022-12-07T06:51:29;98052.20;;;2.50
68510;BMP180;55512;50.102;19.958;2022-12-07T06:53:55;98047.60;;;2.52
68510;BMP180;55512;50.102;19.958;2022-12-07T06:56:20;98047.40;;;2.56
68510;BMP180;55512;50.102;19.958;2022-12-07T06:58:46;98049.20;;;2.50
68510;BMP180;55512;50.102;19.958;2022-12-07T07:01:18;98054.60;;;2.50
68510;BMP180;55512;50.102;19.958;2022-12-07T07:03:45;98058.20;;;2.50
68510;BMP180;55512;50.102;19.958;2022-12-07T07:06:12;98052.80;;;2.52
68510;BMP180;55512;50.102;19.958;2022-12-07T07:08:38;98052.40;;;2.60
68510;BMP180;55512;50.102;19.958;2022-12-07T07:11:05;98056.80;;;2.60
68510;BMP180;55512;50.102;19.958;2022-12-07T07:13:31;98053.80;;;2.60
68510;BMP180;55512;50.102;19.958;2022-12-07T07:15:57;98056.00;;;2.60
68510;BMP180;55512;50.102;19.958;2022-12-07T07:18:23;98063.40;;;2.60
68510;BMP180;55512;50.102;19.958;2022-12-07T07:20:53;98068.00;;;2.50
68510;BMP180;55512;50.102;19.958;2022-12-07T07:23:20;98067.00;;;2.40
68510;BMP180;55512;50.102;19.958;2022-12-07T07:25:47;98059.80;;;2.40
68510;BMP180;55512;50.102;19.958;2022-12-07T07:28:13;98065.40;;;2.38
68510;BMP180;55512;50.102;19.958;2022-12-07T07:30:39;98058.40;;;2.30
68510;BMP180;55512;50.102;19.958;2022-12-07T07:33:05;98054.80;;;2.24
68510;BMP180;55512;50.102;19.958;2022-12-07T07:35:34;98060.00;;;2.28
68510;BMP180;55512;50.102;19.958;2022-12-07T07:38:00;98063.00;;;2.30
68510;BMP180;55512;50.102;19.958;2022-12-07T07:40:27;98059.60;;;2.28
68510;BMP180;55512;50.102;19.958;2022-12-07T07:42:55;98061.40;;;2.24
68510;BMP180;55512;50.102;19.958;2022-12-07T07:45:22;98059.00;;;2.26
68510;BMP180;55512;50.102;19.958;2022-12-07T07:47:49;98060.20;;;2.30
68510;BMP180;55512;50.102;19.958;2022-12-07T07:50:16;98063.80;;;2.30
68510;BMP180;55512;50.102;19.958;2022-12-07T07:52:42;98063.20;;;2.40
68510;BMP180;55512;50.102;19.958;2022-12-07T07:55:08;98063.40;;;2.40
68510;BMP180;55512;50.102;19.958;2022-12-07T07:57:39;98064.20;;;2.40
68510;BMP180;55512;50.102;19.958;2022-12-07T08:00:09;98068.60;;;2.50
68510;BMP180;55512;50.102;19.958;2022-12-07T08:02:35;98073.20;;;2.50
68510;BMP180;55512;50.102;19.958;2022-12-07T08:05:01;98067.80;;;2.50
68510;BMP180;55512;50.102;19.958;2022-12-07T08:07:27;98068.00;;;2.50
68510;BMP180;55512;50.102;19.958;2022-12-07T08:09:53;98069.20;;;2.50
68510;BMP180;55512;50.102;19.958;2022-12-07T08:12:19;98069.20;;;2.54
68510;BMP180;55512;50.102;19.958;2022-12-07T08:14:45;98073.20;;;2.58
68510;BMP180;55512;50.102;19.958;2022-12-07T08:17:10;98074.40;;;2.56
68510;BMP180;55512;50.102;19.958;2022-12-07T08:19:36;98079.00;;;2.50
68510;BMP180;55512;50.102;19.958;2022-12-07T08:22:02;98083.80;;;2.50
68510;BMP180;55512;50.102;19.958;2022-12-07T08:24:27;98083.00;;;2.50
68510;BMP180;55512;50.102;19.958;2022-12-07T08:26:53;98088.60;;;2.48
68510;BMP180;55512;50.102;19.958;2022-12-07T08:29:18;98086.80;;;2.50
68510;BMP180;55512;50.102;19.958;2022-12-07T08:31:44;98087.80;;;2.42
68510;BMP180;55512;50.102;19.958;2022-12-07T08:34:11;98086.20;;;2.48
68510;BMP180;55512;50.102;19.958;2022-12-07T08:36:37;98088.20;;;2.50
68510;BMP180;55512;50.102;19.958;2022-12-07T08:39:03;98087.40;;;2.50
68510;BMP180;55512;50.102;19.958;2022-12-07T08:41:29;98085.00;;;2.50
68510;BMP180;55512;50.102;19.958;2022-12-07T08:43:54;98091.40;;;2.50
68510;BMP180;55512;50.102;19.958;2022-12-07T08:46:39;98088.60;;;2.50
68510;BMP180;55512;50.102;19.958;2022-12-07T08:49:18;98092.00;;;2.60
68510;BMP180;55512;50.102;19.958;2022-12-07T08:51:46;98095.00;;;2.60
68510;BMP180;55512;50.102;19.958;2022-12-07T08:54:16;98096.80;;;2.60
68510;BMP180;55512;50.102;19.958;2022-12-07T08:56:44;98093.40;;;2.52
68510;BMP180;55512;50.102;19.958;2022-12-07T08:59:15;98095.40;;;2.58
68510;BMP180;55512;50.102;19.958;2022-12-07T09:01:41;98097.80;;;2.58
68510;BMP180;55512;50.102;19.958;2022-12-07T09:04:07;98098.60;;;2.60
68510;BMP180;55512;50.102;19.958;2022-12-07T09:06:33;98097.00;;;2.60
68510;BMP180;55512;50.102;19.958;2022-12-07T09:09:01;98102.00;;;2.60
68510;BMP180;55512;50.102;19.958;2022-12-07T09:11:27;98097.00;;;2.60
68510;BMP180;55512;50.102;19.958;2022-12-07T09:13:53;98105.40;;;2.60
68510;BMP180;55512;50.102;19.958;2022-12-07T09:16:18;98100.40;;;2.70
68510;BMP180;55512;50.102;19.958;2022-12-07T09:18:44;98099.80;;;2.70
68510;BMP180;55512;50.102;19.958;2022-12-07T09:21:09;98100.00;;;2.70
68510;BMP180;55512;50.102;19.958;2022-12-07T09:23:35;98098.40;;;2.78
68510;BMP180;55512;50.102;19.958;2022-12-07T09:26:04;98098.60;;;2.80
68510;BMP180;55512;50.102;19.958;2022-12-07T09:28:31;98100.40;;;2.80
68510;BMP180;55512;50.102;19.958;2022-12-07T09:30:56;98097.40;;;2.80
68510;BMP180;55512;50.102;19.958;2022-12-07T09:33:22;98098.20;;;2.80
68510;BMP180;55512;50.102;19.958;2022-12-07T09:35:49;98096.00;;;2.80
68510;BMP180;55512;50.102;19.958;2022-12-07T09:38:16;98093.20;;;2.80
68510;BMP180;55512;50.102;19.958;2022-12-07T09:40:42;98097.80;;;2.80
68510;BMP180;55512;50.102;19.958;2022-12-07T09:43:23;98097.20;;;2.90
68510;BMP180;55512;50.102;19.958;2022-12-07T09:45:54;98094.40;;;2.90
68510;BMP180;55512;50.102;19.958;2022-12-07T09:48:33;98094.60;;;3.00
68510;BMP180;55512;50.102;19.958;2022-12-07T09:51:01;98093.60;;;3.00
68510;BMP180;55512;50.102;19.958;2022-12-07T09:53:33;98094.40;;;3.00
68510;BMP180;55512;50.102;19.958;2022-12-07T09:55:59;98101.20;;;3.00
68510;BMP180;55512;50.102;19.958;2022-12-07T09:58:28;98093.00;;;2.90
68510;BMP180;55512;50.102;19.958;2022-12-07T10:04:10;98088.60;;;2.90
68510;BMP180;55512;50.102;19.958;2022-12-07T10:06:30;98083.80;;;2.94
68510;BMP180;55512;50.102;19.958;2022-12-07T10:08:56;98086.60;;;2.96
68510;BMP180;55512;50.102;19.958;2022-12-07T10:11:21;98079.80;;;2.92
68510;BMP180;55512;50.102;19.958;2022-12-07T10:13:52;98075.60;;;2.90
68510;BMP180;55512;50.102;19.958;2022-12-07T10:18:51;98080.00;;;3.00
68510;BMP180;55512;50.102;19.958;2022-12-07T10:21:21;98076.60;;;3.00
68510;BMP180;55512;50.102;19.958;2022-12-07T10:26:56;98076.40;;;3.02
68510;BMP180;55512;50.102;19.958;2022-12-07T10:34:43;98064.80;;;3.10
68510;BMP180;55512;50.102;19.958;2022-12-07T10:37:19;98063.80;;;3.10
68510;BMP180;55512;50.102;19.958;2022-12-07T10:39:52;98064.20;;;3.10
68510;BMP180;55512;50.102;19.958;2022-12-07T10:42:27;98060.80;;;3.20
68510;BMP180;55512;50.102;19.958;2022-12-07T10:45:12;98061.20;;;3.20
68510;BMP180;55512;50.102;19.958;2022-12-07T10:56:46;98048.00;;;3.30
68510;BMP180;55512;50.102;19.958;2022-12-07T11:16:56;98033.20;;;3.58
68510;BMP180;55512;50.102;19.958;2022-12-07T11:22:30;98042.80;;;3.60
68510;BMP180;55512;50.102;19.958;2022-12-07T11:25:24;98031.00;;;3.60
68510;BMP180;55512;50.102;19.958;2022-12-07T11:28:26;98043.80;;;3.60
68510;BMP180;55512;50.102;19.958;2022-12-07T11:36:43;98031.80;;;3.60
68510;BMP180;55512;50.102;19.958;2022-12-07T11:39:33;98030.00;;;3.70
68510;BMP180;55512;50.102;19.958;2022-12-07T11:42:09;98027.00;;;3.70
68510;BMP180;55512;50.102;19.958;2022-12-07T11:47:32;98026.80;;;3.80
68510;BMP180;55512;50.102;19.958;2022-12-07T11:50:14;98028.20;;;3.80
68510;BMP180;55512;50.102;19.958;2022-12-07T11:52:51;98018.40;;;3.82
68510;BMP180;55512;50.102;19.958;2022-12-07T12:00:51;98013.80;;;3.90
68510;BMP180;55512;50.102;19.958;2022-12-07T12:03:32;98015.60;;;3.90
68510;BMP180;55512;50.102;19.958;2022-12-07T12:05:58;98005.80;;;3.90
68510;BMP180;55512;50.102;19.958;2022-12-07T12:08:43;98009.00;;;3.90
68510;BMP180;55512;50.102;19.958;2022-12-07T12:20:20;98005.00;;;4.00
68510;BMP180;55512;50.102;19.958;2022-12-07T12:22:59;98004.00;;;4.00
68510;BMP180;55512;50.102;19.958;2022-12-07T12:25:30;98001.40;;;4.10
68510;BMP180;55512;50.102;19.958;2022-12-07T12:28:00;98000.20;;;4.10
68510;BMP180;55512;50.102;19.958;2022-12-07T12:30:38;97995.40;;;4.18
68510;BMP180;55512;50.102;19.958;2022-12-07T12:33:27;97993.60;;;4.20
68510;BMP180;55512;50.102;19.958;2022-12-07T12:39:16;97981.40;;;4.28
68510;BMP180;55512;50.102;19.958;2022-12-07T12:47:04;97989.20;;;4.30
68510;BMP180;55512;50.102;19.958;2022-12-07T12:49:41;97989.20;;;4.30
68510;BMP180;55512;50.102;19.958;2022-12-07T12:55:12;97986.80;;;4.30
68510;BMP180;55512;50.102;19.958;2022-12-07T12:57:38;97985.00;;;4.30
68510;BMP180;55512;50.102;19.958;2022-12-07T13:00:22;97982.40;;;4.30
68510;BMP180;55512;50.102;19.958;2022-12-07T13:02:56;97989.00;;;4.30
68510;BMP180;55512;50.102;19.958;2022-12-07T13:05:29;97989.20;;;4.30
68510;BMP180;55512;50.102;19.958;2022-12-07T13:08:25;97992.40;;;4.30
68510;BMP180;55512;50.102;19.958;2022-12-07T13:10:51;97992.00;;;4.30
68510;BMP180;55512;50.102;19.958;2022-12-07T13:15:51;97990.20;;;4.30
68510;BMP180;55512;50.102;19.958;2022-12-07T13:26:37;97989.80;;;4.40
68510;BMP180;55512;50.102;19.958;2022-12-07T13:31:42;97992.00;;;4.40
68510;BMP180;55512;50.102;19.958;2022-12-07T13:39:34;97985.20;;;4.30
68510;BMP180;55512;50.102;19.958;2022-12-07T13:42:15;97992.40;;;4.30
68510;BMP180;55512;50.102;19.958;2022-12-07T13:44:43;97998.20;;;4.30
68510;BMP180;55512;50.102;19.958;2022-12-07T13:47:41;98000.40;;;4.30
68510;BMP180;55512;50.102;19.958;2022-12-07T13:52:47;98005.80;;;4.30
68510;BMP180;55512;50.102;19.958;2022-12-07T13:55:16;98002.20;;;4.30
68510;BMP180;55512;50.102;19.958;2022-12-07T13:57:47;98010.40;;;4.30
68510;BMP180;55512;50.102;19.958;2022-12-07T14:00:27;98015.00;;;4.20
68510;BMP180;55512;50.102;19.958;2022-12-07T14:03:04;98008.60;;;4.20
68510;BMP180;55512;50.102;19.958;2022-12-07T14:05:33;98008.60;;;4.20
68510;BMP180;55512;50.102;19.958;2022-12-07T14:08:22;98009.60;;;4.20
68510;BMP180;55512;50.102;19.958;2022-12-07T14:13:34;98016.80;;;4.22
68510;BMP180;55512;50.102;19.958;2022-12-07T14:16:26;98018.80;;;4.20
68510;BMP180;55512;50.102;19.958;2022-12-07T14:18:54;98015.20;;;4.20
68510;BMP180;55512;50.102;19.958;2022-12-07T14:21:29;98010.20;;;4.20
68510;BMP180;55512;50.102;19.958;2022-12-07T14:26:34;98014.00;;;4.10
68510;BMP180;55512;50.102;19.958;2022-12-07T14:31:53;98013.80;;;4.10
68510;BMP180;55512;50.102;19.958;2022-12-07T14:34:23;98005.40;;;4.04
68510;BMP180;55512;50.102;19.958;2022-12-07T14:36:49;98013.20;;;4.00
68510;BMP180;55512;50.102;19.958;2022-12-07T14:39:15;98019.80;;;4.00
68510;BMP180;55512;50.102;19.958;2022-12-07T14:41:40;98023.80;;;4.00
68510;BMP180;55512;50.102;19.958;2022-12-07T14:44:20;98024.00;;;3.90
68510;BMP180;55512;50.102;19.958;2022-12-07T14:46:48;98008.40;;;3.90
68510;BMP180;55512;50.102;19.958;2022-12-07T14:49:14;98006.40;;;3.90
68510;BMP180;55512;50.102;19.958;2022-12-07T14:51:42;98014.60;;;3.90
68510;BMP180;55512;50.102;19.958;2022-12-07T14:54:20;98016.00;;;3.90
68510;BMP180;55512;50.102;19.958;2022-12-07T14:56:46;98023.40;;;3.90
68510;BMP180;55512;50.102;19.958;2022-12-07T14:59:17;98020.40;;;3.86
68510;BMP180;55512;50.102;19.958;2022-12-07T15:01:42;98018.80;;;3.84
68510;BMP180;55512;50.102;19.958;2022-12-07T15:04:08;98009.20;;;3.84
68510;BMP180;55512;50.102;19.958;2022-12-07T15:06:34;98015.20;;;3.82
68510;BMP180;55512;50.102;19.958;2022-12-07T15:08:59;98023.00;;;3.80
68510;BMP180;55512;50.102;19.958;2022-12-07T15:11:24;98018.40;;;3.80
68510;BMP180;55512;50.102;19.958;2022-12-07T15:13:50;98023.20;;;3.80
68510;BMP180;55512;50.102;19.958;2022-12-07T15:16:38;98025.80;;;3.80
68510;BMP180;55512;50.102;19.958;2022-12-07T15:19:20;98027.80;;;3.80
68510;BMP180;55512;50.102;19.958;2022-12-07T15:21:52;98028.20;;;3.80
68510;BMP180;55512;50.102;19.958;2022-12-07T15:24:19;98029.00;;;3.80
68510;BMP180;55512;50.102;19.958;2022-12-07T15:26:44;98024.80;;;3.80
68510;BMP180;55512;50.102;19.958;2022-12-07T15:29:11;98027.20;;;3.80
68510;BMP180;55512;50.102;19.958;2022-12-07T15:31:37;98025.20;;;3.80
68510;BMP180;55512;50.102;19.958;2022-12-07T15:34:03;98026.00;;;3.78
68510;BMP180;55512;50.102;19.958;2022-12-07T15:36:31;98030.60;;;3.74
68510;BMP180;55512;50.102;19.958;2022-12-07T15:38:57;98030.40;;;3.72
68510;BMP180;55512;50.102;19.958;2022-12-07T15:41:23;98028.20;;;3.74
68510;BMP180;55512;50.102;19.958;2022-12-07T15:43:49;98043.80;;;3.80
68510;BMP180;55512;50.102;19.958;2022-12-07T15:46:40;98041.80;;;3.72
68510;BMP180;55512;50.102;19.958;2022-12-07T15:49:12;98054.60;;;3.70
68510;BMP180;55512;50.102;19.958;2022-12-07T15:51:38;98053.00;;;3.70
68510;BMP180;55512;50.102;19.958;2022-12-07T15:54:03;98055.60;;;3.70
68510;BMP180;55512;50.102;19.958;2022-12-07T15:56:29;98059.80;;;3.70
68510;BMP180;55512;50.102;19.958;2022-12-07T15:58:56;98059.80;;;3.70
68510;BMP180;55512;50.102;19.958;2022-12-07T16:01:22;98057.20;;;3.68
68510;BMP180;55512;50.102;19.958;2022-12-07T16:03:48;98059.60;;;3.66
68510;BMP180;55512;50.102;19.958;2022-12-07T16:06:18;98061.20;;;3.68
68510;BMP180;55512;50.102;19.958;2022-12-07T16:08:45;98059.00;;;3.70
68510;BMP180;55512;50.102;19.958;2022-12-07T16:11:12;98064.00;;;3.70
68510;BMP180;55512;50.102;19.958;2022-12-07T16:13:38;98066.00;;;3.60
68510;BMP180;55512;50.102;19.958;2022-12-07T16:16:07;98063.40;;;3.60
68510;BMP180;55512;50.102;19.958;2022-12-07T16:18:33;98063.00;;;3.60
68510;BMP180;55512;50.102;19.958;2022-12-07T16:20:59;98063.00;;;3.60
68510;BMP180;55512;50.102;19.958;2022-12-07T16:23:25;98064.40;;;3.60
68510;BMP180;55512;50.102;19.958;2022-12-07T16:25:50;98064.20;;;3.60
68510;BMP180;55512;50.102;19.958;2022-12-07T16:28:16;98060.20;;;3.60
68510;BMP180;55512;50.102;19.958;2022-12-07T16:30:42;98057.40;;;3.60
68510;BMP180;55512;50.102;19.958;2022-12-07T16:33:07;98058.60;;;3.60
68510;BMP180;55512;50.102;19.958;2022-12-07T16:35:32;98065.00;;;3.60
68510;BMP180;55512;50.102;19.958;2022-12-07T16:37:58;98055.40;;;3.60
68510;BMP180;55512;50.102;19.958;2022-12-07T16:40:23;98056.60;;;3.60
68510;BMP180;55512;50.102;19.958;2022-12-07T16:42:49;98066.60;;;3.60
68510;BMP180;55512;50.102;19.958;2022-12-07T16:45:14;98062.80;;;3.60